Time;durP1;ratioP1;P1;durP2;ratioP2;P2;SDS_P1;SDS_P2;PMS_P1;PMS_P2;Temp;Humidity;BMP_temperature;BMP_pressure;BME280_temperature;BME280_humidity;BME280_pressure;Samples;Min_cycle;Max_cycle;Signal;HPM_P1;HPM_P2
2021/08/28 00:02:01;;;;;;;0.20;0.20;;;14.50;91.50;;;;;;5043442;28;20513;-92
2021/08/28 00:04:27;;;;;;;;;;;14.40;91.60;;;;;;5045782;28;20021;-93
2021/08/28 00:06:53;;;;;;;0.00;0.00;;;14.20;92.00;;;;;;5059144;28;19916;-94
2021/08/28 00:09:18;;;;;;;0.40;0.30;;;14.50;92.00;;;;;;5046579;28;20057;-94
2021/08/28 00:11:44;;;;;;;0.20;0.20;;;14.30;92.20;;;;;;5043779;28;20033;-93
2021/08/28 00:14:10;;;;;;;0.20;0.20;;;14.40;92.00;;;;;;5043454;28;20032;-93
2021/08/28 00:16:35;;;;;;;0.97;0.33;;;14.30;92.20;;;;;;5044160;28;20044;-93
2021/08/28 00:19:01;;;;;;;0.10;0.10;;;14.30;92.60;;;;;;5046964;28;20033;-92
2021/08/28 00:21:27;;;;;;;0.30;0.30;;;14.30;92.60;;;;;;5046459;28;20518;-92
2021/08/28 00:23:52;;;;;;;0.20;0.20;;;14.10;92.70;;;;;;5047676;28;20029;-92
2021/08/28 00:26:18;;;;;;;0.10;0.10;;;14.20;92.80;;;;;;5046466;28;20504;-92
2021/08/28 00:28:44;;;;;;;1.25;0.80;;;13.90;93.70;;;;;;5048486;28;20514;-90
2021/08/28 00:31:09;;;;;;;0.10;0.10;;;14.20;93.00;;;;;;5048050;28;20115;-92
2021/08/28 00:33:35;;;;;;;0.23;0.23;;;14.50;93.00;;;;;;5048712;28;20524;-92
2021/08/28 00:36:01;;;;;;;0.00;0.00;;;14.30;93.40;;;;;;5047447;28;20512;-92
2021/08/28 00:38:26;;;;;;;0.10;0.10;;;14.00;93.20;;;;;;5047750;28;20025;-92
2021/08/28 00:40:52;;;;;;;0.13;0.13;;;14.20;93.70;;;;;;5045997;28;20068;-93
2021/08/28 00:43:18;;;;;;;0.40;0.40;;;14.50;92.80;;;;;;5047555;28;20043;-92
2021/08/28 00:45:44;;;;;;;0.30;0.30;;;14.20;92.90;;;;;;5047697;28;20037;-92
2021/08/28 00:48:12;;;;;;;0.27;0.27;;;14.30;93.00;;;;;;5049153;28;20044;-92
2021/08/28 00:50:41;;;;;;;0.10;0.10;;;14.20;93.40;;;;;;5048744;28;20028;-93
2021/08/28 00:53:08;;;;;;;0.10;0.10;;;14.10;93.30;;;;;;5045995;28;20082;-93
2021/08/28 00:55:52;;;;;;;3.53;1.48;;;14.20;93.70;;;;;;5046441;28;20045;-92
2021/08/28 00:58:22;;;;;;;0.10;0.10;;;13.90;94.00;;;;;;5046074;28;20496;-94
2021/08/28 01:00:56;;;;;;;0.10;0.10;;;14.00;94.00;;;;;;5045902;28;20033;-92
2021/08/28 01:03:27;;;;;;;0.43;0.43;;;13.90;94.20;;;;;;5047858;28;20543;-91
2021/08/28 01:06:03;;;;;;;0.10;0.10;;;13.70;94.60;;;;;;5045695;28;20033;-92
2021/08/28 01:08:56;;;;;;;0.13;0.13;;;13.50;95.00;;;;;;5047378;28;20138;-93
2021/08/28 01:11:48;;;;;;;0.03;0.03;;;13.60;95.40;;;;;;5047871;28;20052;-93
2021/08/28 01:14:24;;;;;;;0.00;0.00;;;13.70;95.30;;;;;;5045152;28;20107;-93
2021/08/28 01:16:58;;;;;;;2.10;1.75;;;13.60;95.20;;;;;;5049306;28;20054;-93
2021/08/28 01:19:41;;;;;;;0.20;0.20;;;13.70;96.20;;;;;;5048899;28;20037;-92
2021/08/28 01:22:13;;;;;;;0.20;0.20;;;13.90;94.70;;;;;;5048038;28;20033;-92
2021/08/28 01:24:42;;;;;;;0.10;0.10;;;13.90;94.70;;;;;;5047497;28;20429;-93
2021/08/28 01:27:19;;;;;;;0.45;0.20;;;14.10;94.60;;;;;;5047310;28;20036;-91
2021/08/28 01:29:47;;;;;;;0.00;0.00;;;13.90;94.70;;;;;;5045643;28;20033;-92
2021/08/28 01:32:14;;;;;;;0.38;0.38;;;13.80;95.20;;;;;;5046048;28;20521;-93
2021/08/28 01:34:40;;;;;;;0.10;0.10;;;14.00;94.70;;;;;;5046753;28;20037;-93
2021/08/28 01:37:10;;;;;;;0.00;0.00;;;13.70;94.60;;;;;;5046793;28;20032;-94
2021/08/28 01:39:37;;;;;;;0.10;0.10;;;13.90;95.00;;;;;;5046581;28;20032;-93
2021/08/28 01:42:04;;;;;;;0.10;0.10;;;13.90;95.00;;;;;;5047872;28;20021;-93
2021/08/28 01:44:31;;;;;;;0.10;0.10;;;14.00;95.20;;;;;;5045908;28;20032;-93
2021/08/28 01:46:56;;;;;;;0.20;0.20;;;14.00;94.80;;;;;;5047165;28;20033;-93
2021/08/28 01:49:24;;;;;;;0.27;0.27;;;13.80;99.90;;;;;;5045396;28;20056;-92
2021/08/28 01:51:50;;;;;;;0.28;0.28;;;13.80;94.70;;;;;;5046076;28;20406;-92
2021/08/28 01:54:16;;;;;;;0.28;0.28;;;13.80;94.80;;;;;;5049029;28;20036;-93
2021/08/28 01:56:41;;;;;;;0.50;0.50;;;13.90;94.90;;;;;;5045402;28;20068;-92
2021/08/28 01:59:07;;;;;;;0.67;0.30;;;13.60;95.50;;;;;;5045340;28;20450;-92
2021/08/28 02:01:33;;;;;;;0.10;0.10;;;13.50;95.70;;;;;;5045496;28;20063;-93
2021/08/28 02:03:59;;;;;;;0.00;0.00;;;13.80;95.40;;;;;;5045636;28;20044;-93
2021/08/28 02:06:37;;;;;;;0.37;0.37;;;13.60;95.20;;;;;;5049256;28;20037;-93
2021/08/28 02:09:42;;;;;;;0.10;0.10;;;13.50;95.90;;;;;;5048216;28;20053;-94
2021/08/28 02:12:11;;;;;;;1.45;0.30;;;13.60;96.20;;;;;;5040200;28;20513;-94
2021/08/28 02:14:46;;;;;;;0.20;0.20;;;13.60;95.70;;;;;;5043353;28;20037;-92
2021/08/28 02:17:13;;;;;;;0.00;0.00;;;13.70;95.90;;;;;;5045270;28;20607;-93
2021/08/28 02:19:42;;;;;;;0.10;0.10;;;13.40;96.20;;;;;;5043767;28;20033;-92
2021/08/28 02:22:21;;;;;;;0.10;0.10;;;13.50;96.30;;;;;;5044486;28;20102;-92
2021/08/28 02:24:52;;;;;;;0.30;0.28;;;13.50;96.20;;;;;;5045678;28;20030;-92
2021/08/28 02:27:27;;;;;;;0.00;0.00;;;13.60;96.60;;;;;;5063434;28;20508;-93
2021/08/28 02:29:57;;;;;;;0.00;0.00;;;13.60;96.90;;;;;;5045420;28;20403;-93
2021/08/28 02:32:24;;;;;;;0.35;0.20;;;13.50;96.30;;;;;;5048051;28;20112;-93
2021/08/28 02:34:51;;;;;;;0.10;0.10;;;13.40;96.50;;;;;;5047021;28;20044;-93
2021/08/28 02:37:17;;;;;;;0.10;0.10;;;13.60;96.10;;;;;;5046427;28;20502;-93
2021/08/28 02:39:47;;;;;;;0.30;0.30;;;13.30;96.40;;;;;;5048187;28;20140;-94
2021/08/28 02:42:15;;;;;;;0.10;0.10;;;13.30;96.60;;;;;;5046122;28;20099;-92
2021/08/28 02:44:43;;;;;;;0.00;0.00;;;13.20;96.80;;;;;;5047494;28;20040;-93
2021/08/28 02:47:10;;;;;;;0.20;0.20;;;13.10;97.50;;;;;;5046292;28;20040;-93
2021/08/28 02:49:38;;;;;;;0.08;0.08;;;13.20;96.90;;;;;;5047779;28;20107;-92
2021/08/28 02:52:06;;;;;;;0.15;0.15;;;13.20;96.70;;;;;;5046479;28;20041;-92
2021/08/28 02:54:33;;;;;;;0.13;0.13;;;13.10;96.80;;;;;;5046779;28;20075;-91
2021/08/28 02:57:00;;;;;;;3.20;0.28;;;13.00;97.30;;;;;;5043927;28;20110;-93
2021/08/28 02:59:27;;;;;;;0.00;0.00;;;13.00;97.40;;;;;;5045515;28;20033;-92
2021/08/28 03:01:54;;;;;;;0.43;0.43;;;12.90;97.40;;;;;;5045473;28;20041;-92
2021/08/28 03:04:24;;;;;;;0.10;0.10;;;12.70;98.00;;;;;;5045887;28;20025;-92
2021/08/28 03:06:50;;;;;;;0.03;0.03;;;12.90;98.20;;;;;;5043853;28;20079;-93
2021/08/28 03:09:16;;;;;;;0.10;0.10;;;12.80;98.20;;;;;;5045752;28;20044;-92
2021/08/28 03:11:44;;;;;;;0.20;0.20;;;12.80;98.00;;;;;;5045049;28;20033;-93
2021/08/28 03:14:10;;;;;;;0.15;0.15;;;12.70;98.30;;;;;;5046179;28;20021;-91
2021/08/28 03:16:39;;;;;;;0.10;0.10;;;12.70;98.20;;;;;;5043639;28;20438;-92
2021/08/28 03:19:07;;;;;;;0.08;0.08;;;12.50;98.50;;;;;;5045972;28;20029;-93
2021/08/28 03:21:34;;;;;;;0.00;0.00;;;12.80;98.70;;;;;;5044086;28;20025;-94
2021/08/28 03:24:01;;;;;;;0.28;0.28;;;12.80;98.40;;;;;;5047166;28;20032;-92
2021/08/28 03:26:29;;;;;;;0.13;0.13;;;12.60;98.90;;;;;;5046443;28;20502;-93
2021/08/28 03:28:57;;;;;;;0.10;0.10;;;12.80;98.90;;;;;;5048645;28;20089;-93
2021/08/28 03:31:24;;;;;;;1.38;0.90;;;13.10;97.70;;;;;;5048102;28;20029;-93
2021/08/28 03:33:56;;;;;;;0.13;0.13;;;13.10;97.90;;;;;;5045235;28;20022;-92
2021/08/28 03:36:22;;;;;;;0.05;0.05;;;13.00;97.90;;;;;;5046076;28;20514;-93
2021/08/28 03:38:48;;;;;;;0.67;0.50;;;13.00;97.70;;;;;;5046924;28;20029;-94
2021/08/28 03:41:17;;;;;;;0.20;0.20;;;13.10;97.80;;;;;;5038664;28;20085;-93
2021/08/28 03:43:47;;;;;;;0.03;0.03;;;13.10;97.50;;;;;;5045176;28;20063;-94
2021/08/28 03:46:14;;;;;;;0.00;0.00;;;13.10;97.80;;;;;;5047385;28;20041;-94
2021/08/28 03:48:39;;;;;;;;;;;13.00;97.90;;;;;;5047453;28;20037;-93
2021/08/28 03:51:06;;;;;;;0.55;0.55;;;13.20;97.50;;;;;;5034623;28;19916;-91
2021/08/28 03:53:31;;;;;;;0.20;0.17;;;13.10;97.70;;;;;;5045243;28;20086;-93
2021/08/28 03:55:57;;;;;;;1.65;0.80;;;13.00;97.90;;;;;;5054358;28;20120;-92
2021/08/28 03:58:24;;;;;;;0.47;0.20;;;12.90;98.20;;;;;;5051809;28;20036;-94
2021/08/28 04:00:50;;;;;;;0.30;0.30;;;12.80;98.80;;;;;;5049500;28;20071;-93
2021/08/28 04:03:16;;;;;;;0.38;0.38;;;13.00;98.00;;;;;;5051009;28;20055;-93
2021/08/28 04:05:42;;;;;;;0.30;0.30;;;12.80;98.80;;;;;;5047748;28;20490;-93
2021/08/28 04:08:08;;;;;;;0.00;0.00;;;13.00;98.10;;;;;;5053783;28;20053;-94
2021/08/28 04:10:33;;;;;;;0.10;0.10;;;13.00;97.90;;;;;;5080916;28;20017;-94
2021/08/28 04:12:59;;;;;;;0.73;0.67;;;12.90;98.10;;;;;;5051100;28;20036;-93
2021/08/28 04:15:25;;;;;;;0.10;0.10;;;12.90;98.10;;;;;;5051254;28;20198;-94
2021/08/28 04:17:50;;;;;;;0.17;0.17;;;13.00;98.00;;;;;;5051321;28;20148;-93
2021/08/28 04:20:16;;;;;;;0.77;0.55;;;13.20;97.50;;;;;;5050000;28;20032;-94
2021/08/28 04:22:42;;;;;;;0.00;0.00;;;13.20;97.60;;;;;;5049900;28;20053;-92
2021/08/28 04:25:09;;;;;;;0.38;0.38;;;13.10;97.90;;;;;;5050152;28;20032;-93
2021/08/28 04:27:36;;;;;;;0.20;0.20;;;12.90;98.30;;;;;;5049541;28;20497;-92
2021/08/28 04:30:03;;;;;;;0.10;0.10;;;12.90;98.40;;;;;;5050444;28;20039;-93
2021/08/28 04:32:28;;;;;;;;;;;13.00;98.30;;;;;;5048584;28;20028;-93
2021/08/28 04:34:54;;;;;;;0.10;0.10;;;12.80;98.40;;;;;;5050510;28;19919;-92
2021/08/28 04:37:19;;;;;;;0.55;0.55;;;13.00;98.20;;;;;;5048887;28;20038;-93
2021/08/28 04:39:45;;;;;;;0.20;0.20;;;12.80;98.50;;;;;;5050312;28;20079;-93
2021/08/28 04:42:11;;;;;;;0.13;0.05;;;12.70;98.90;;;;;;5046564;28;20040;-93
2021/08/28 04:44:37;;;;;;;0.00;0.00;;;12.80;98.90;;;;;;5048287;28;20028;-92
2021/08/28 04:47:03;;;;;;;0.20;0.20;;;12.50;99.40;;;;;;5049161;28;20021;-93
2021/08/28 04:49:29;;;;;;;0.10;0.10;;;12.30;99.90;;;;;;5047960;28;20021;-93
2021/08/28 04:51:54;;;;;;;0.00;0.00;;;12.30;99.90;;;;;;5048064;28;20037;-91
2021/08/28 04:54:20;;;;;;;0.00;0.00;;;12.30;99.90;;;;;;5049282;28;20037;-92
2021/08/28 04:56:46;;;;;;;0.30;0.30;;;12.40;99.90;;;;;;5047100;28;20124;-93
2021/08/28 04:59:11;;;;;;;0.10;0.10;;;12.30;99.90;;;;;;5048352;28;20048;-92
2021/08/28 05:01:37;;;;;;;0.00;0.00;;;12.20;99.90;;;;;;5048193;28;20025;-91
2021/08/28 05:04:03;;;;;;;0.00;0.00;;;12.00;99.90;;;;;;5048360;28;20037;-92
2021/08/28 05:06:28;;;;;;;0.13;0.10;;;12.10;99.90;;;;;;5047414;28;20025;-92
2021/08/28 05:08:54;;;;;;;0.10;0.10;;;12.00;99.90;;;;;;5057651;28;20053;-93
2021/08/28 05:11:20;;;;;;;0.17;0.17;;;12.10;99.90;;;;;;5049610;28;20100;-92
2021/08/28 05:13:46;;;;;;;0.10;0.10;;;12.10;99.90;;;;;;5046847;28;20033;-92
2021/08/28 05:16:11;;;;;;;1.07;0.77;;;12.00;99.90;;;;;;5047619;28;20046;-94
2021/08/28 05:18:37;;;;;;;0.10;0.10;;;12.00;99.90;;;;;;5049494;28;20028;-94
2021/08/28 05:21:03;;;;;;;0.43;0.43;;;12.00;99.90;;;;;;5048354;28;20041;-95
2021/08/28 05:23:29;;;;;;;0.10;0.10;;;12.20;99.90;;;;;;5061762;28;20029;-94
2021/08/28 05:25:54;;;;;;;0.55;0.55;;;12.40;99.90;;;;;;5048962;28;20401;-92
2021/08/28 05:28:20;;;;;;;0.45;0.45;;;13.20;99.90;;;;;;5046965;28;20125;-94
2021/08/28 05:30:46;;;;;;;0.03;0.03;;;13.60;99.90;;;;;;5049044;28;20071;-93
2021/08/28 05:33:14;;;;;;;0.10;0.10;;;13.20;99.90;;;;;;5048731;28;20044;-94
2021/08/28 05:35:40;;;;;;;1.13;1.08;;;12.60;99.90;;;;;;5046407;28;20821;-95
2021/08/28 05:38:06;;;;;;;0.10;0.10;;;12.60;99.90;;;;;;5048148;28;20024;-94
2021/08/28 05:40:32;;;;;;;0.20;0.20;;;12.70;99.90;;;;;;5051169;28;20033;-95
2021/08/28 05:42:58;;;;;;;0.13;0.13;;;12.80;99.90;;;;;;5051413;28;20080;-94
2021/08/28 05:45:23;;;;;;;0.10;0.10;;;12.80;99.90;;;;;;5063491;28;20056;-94
2021/08/28 05:47:50;;;;;;;0.10;0.10;;;12.90;99.90;;;;;;5045139;28;20052;-88
2021/08/28 05:50:17;;;;;;;0.10;0.10;;;12.70;99.90;;;;;;5040446;28;20028;-85
2021/08/28 05:52:43;;;;;;;0.43;0.30;;;13.30;99.90;;;;;;5041772;28;20048;-88
2021/08/28 05:55:12;;;;;;;0.05;0.05;;;12.80;99.90;;;;;;5043178;28;20143;-89
2021/08/28 05:57:39;;;;;;;0.20;0.20;;;12.60;99.90;;;;;;5040869;28;20033;-89
2021/08/28 06:00:05;;;;;;;0.20;0.20;;;12.70;99.90;;;;;;5040869;28;20037;-88
2021/08/28 06:02:31;;;;;;;2.83;0.30;;;12.90;99.90;;;;;;5042603;28;20115;-90
2021/08/28 06:04:57;;;;;;;7.00;0.70;;;12.90;99.90;;;;;;5041470;28;20079;-89
2021/08/28 06:07:23;;;;;;;0.00;0.00;;;13.10;99.90;;;;;;5043000;28;20055;-90
2021/08/28 06:09:48;;;;;;;0.10;0.10;;;13.40;99.90;;;;;;5044454;28;20147;-90
2021/08/28 06:12:14;;;;;;;0.10;0.10;;;13.40;99.90;;;;;;5044723;28;20029;-88
2021/08/28 06:14:40;;;;;;;0.10;0.10;;;13.50;99.90;;;;;;5043327;28;20123;-88
2021/08/28 06:17:05;;;;;;;0.10;0.10;;;13.60;99.70;;;;;;5042989;28;20051;-88
2021/08/28 06:19:31;;;;;;;0.03;0.03;;;13.40;99.90;;;;;;5041995;28;20085;-88
2021/08/28 06:21:57;;;;;;;0.00;0.00;;;13.40;99.90;;;;;;5042403;28;20026;-87
2021/08/28 06:24:22;;;;;;;0.00;0.00;;;13.70;99.90;;;;;;5043466;28;20078;-89
2021/08/28 06:26:49;;;;;;;0.10;0.10;;;13.70;99.70;;;;;;5042519;28;20061;-92
2021/08/28 06:29:14;;;;;;;0.00;0.00;;;13.80;99.70;;;;;;5040102;28;20025;-93
2021/08/28 06:31:40;;;;;;;0.13;0.13;;;14.20;99.30;;;;;;5044658;28;20094;-92
2021/08/28 06:34:06;;;;;;;0.28;0.28;;;14.40;98.50;;;;;;5056895;28;20098;-84
2021/08/28 06:36:31;;;;;;;0.10;0.10;;;14.60;98.80;;;;;;5042901;28;20051;-90
2021/08/28 06:38:57;;;;;;;0.10;0.10;;;14.50;98.40;;;;;;5039658;28;20033;-91
2021/08/28 06:41:23;;;;;;;0.00;0.00;;;14.70;97.80;;;;;;5038379;28;20537;-89
2021/08/28 06:43:48;;;;;;;0.10;0.10;;;14.80;97.30;;;;;;5037778;28;20075;-91
2021/08/28 06:46:14;;;;;;;0.10;0.10;;;14.90;96.80;;;;;;5028629;28;20064;-91
2021/08/28 06:48:40;;;;;;;0.10;0.10;;;15.30;96.50;;;;;;5029898;28;20114;-89
2021/08/28 06:51:06;;;;;;;0.03;0.03;;;15.50;95.60;;;;;;5041963;28;20032;-88
2021/08/28 06:53:32;;;;;;;0.40;0.30;;;15.30;96.00;;;;;;5039326;28;20287;-89
2021/08/28 06:55:57;;;;;;;0.63;0.30;;;15.40;96.00;;;;;;5038580;28;20033;-89
2021/08/28 06:58:23;;;;;;;1.20;0.57;;;15.60;95.30;;;;;;5032646;28;20033;-90
2021/08/28 07:00:49;;;;;;;0.10;0.10;;;15.70;95.50;;;;;;5025679;28;20032;-88
2021/08/28 07:03:14;;;;;;;1.80;0.20;;;16.00;94.50;;;;;;5039742;28;20036;-89
2021/08/28 07:05:40;;;;;;;0.10;0.10;;;16.30;94.50;;;;;;5042581;28;20047;-90
2021/08/28 07:08:06;;;;;;;0.20;0.20;;;16.10;95.00;;;;;;5036378;28;20045;-91
2021/08/28 07:10:31;;;;;;;1.67;0.50;;;16.20;94.00;;;;;;5028004;28;20041;-86
2021/08/28 07:12:57;;;;;;;0.30;0.30;;;16.40;93.80;;;;;;5037779;28;20029;-90
2021/08/28 07:15:22;;;;;;;0.10;0.10;;;16.70;93.10;;;;;;5031033;28;20041;-91
2021/08/28 07:17:48;;;;;;;0.00;0.00;;;16.80;93.00;;;;;;5031749;28;20033;-77
2021/08/28 07:20:14;;;;;;;0.83;0.53;;;18.20;91.70;;;;;;5028899;28;20036;-77
2021/08/28 07:22:40;;;;;;;0.10;0.10;;;21.50;80.80;;;;;;5025878;28;20033;-77
2021/08/28 07:25:06;;;;;;;0.10;0.10;;;20.70;80.30;;;;;;5025185;28;20564;-77
2021/08/28 07:27:32;;;;;;;0.50;0.45;;;22.40;75.30;;;;;;5026984;28;20044;-77
2021/08/28 07:29:58;;;;;;;0.57;0.50;;;23.50;72.20;;;;;;5030663;28;20041;-78
2021/08/28 07:32:23;;;;;;;0.00;0.00;;;23.00;73.00;;;;;;5026017;28;20028;-76
2021/08/28 07:34:50;;;;;;;0.10;0.10;;;22.70;69.80;;;;;;5024617;28;20477;-78
2021/08/28 07:37:16;;;;;;;0.10;0.10;;;23.40;66.70;;;;;;5025065;28;20043;-78
2021/08/28 07:39:42;;;;;;;0.10;0.03;;;22.90;69.50;;;;;;5031488;28;20029;-77
2021/08/28 07:42:08;;;;;;;0.00;0.00;;;24.30;65.90;;;;;;5032934;28;20029;-77
2021/08/28 07:44:33;;;;;;;0.00;0.00;;;24.10;76.40;;;;;;5040077;28;20029;-77
2021/08/28 07:46:59;;;;;;;0.00;0.00;;;24.70;59.00;;;;;;5036497;28;20039;-77
2021/08/28 07:49:25;;;;;;;0.03;0.03;;;26.00;57.40;;;;;;5037682;28;20033;-76
2021/08/28 07:51:50;;;;;;;0.00;0.00;;;24.20;62.20;;;;;;5040561;28;20044;-77
2021/08/28 07:54:16;;;;;;;0.00;0.00;;;26.10;57.10;;;;;;5043500;28;20065;-77
2021/08/28 07:56:42;;;;;;;0.15;0.15;;;24.40;58.20;;;;;;5036925;28;20406;-77
2021/08/28 07:59:08;;;;;;;0.00;0.00;;;23.90;58.60;;;;;;5036418;28;20033;-77
2021/08/28 08:01:33;;;;;;;0.00;0.00;;;25.00;56.30;;;;;;5039019;28;20897;-79
2021/08/28 08:03:59;;;;;;;3.87;0.93;;;24.70;55.60;;;;;;5040576;28;20040;-77
2021/08/28 08:06:25;;;;;;;9.10;0.68;;;25.10;53.80;;;;;;5040017;28;20500;-77
2021/08/28 08:08:50;;;;;;;0.90;0.47;;;24.90;53.50;;;;;;5036512;28;20053;-77
2021/08/28 08:11:17;;;;;;;0.60;0.47;;;24.90;50.90;;;;;;5037524;28;20052;-76
2021/08/28 08:13:44;;;;;;;0.00;0.00;;;25.10;51.30;;;;;;5036421;28;20365;-76
2021/08/28 08:16:10;;;;;;;0.10;0.10;;;25.50;52.80;;;;;;5039290;28;20051;-77
2021/08/28 08:18:36;;;;;;;0.15;0.15;;;25.40;52.50;;;;;;5033163;28;20071;-77
2021/08/28 08:21:03;;;;;;;0.00;0.00;;;26.90;49.10;;;;;;5041956;28;20037;-77
2021/08/28 08:23:28;;;;;;;;;;;25.70;46.00;;;;;;5036723;28;20021;-77
2021/08/28 08:25:54;;;;;;;;;;;26.60;45.80;;;;;;5039311;28;19936;-78
2021/08/28 08:28:19;;;;;;;0.00;0.00;;;30.00;41.90;;;;;;5038997;28;20360;-77
2021/08/28 08:30:45;;;;;;;0.00;0.00;;;30.10;42.10;;;;;;5033803;28;20664;-77
2021/08/28 08:33:11;;;;;;;0.00;0.00;;;30.50;31.90;;;;;;5033156;28;20800;-77
2021/08/28 08:35:37;;;;;;;0.00;0.00;;;27.70;39.90;;;;;;5035766;28;20077;-77
2021/08/28 08:38:03;;;;;;;0.00;0.00;;;27.30;40.30;;;;;;5050936;28;20048;-78
2021/08/28 08:40:30;;;;;;;0.43;0.43;;;28.30;35.00;;;;;;5041790;28;20037;-78
2021/08/28 08:42:58;;;;;;;0.10;0.10;;;29.40;32.90;;;;;;5027142;28;20032;-81
2021/08/28 08:45:25;;;;;;;0.00;0.00;;;29.60;30.80;;;;;;5042101;28;20040;-79
2021/08/28 08:47:51;;;;;;;0.28;0.28;;;26.90;36.90;;;;;;5039281;28;20110;-79
2021/08/28 08:50:19;;;;;;;0.00;0.00;;;26.80;38.80;;;;;;5041564;28;20039;-80
2021/08/28 08:52:49;;;;;;;0.00;0.00;;;27.00;37.40;;;;;;5039562;28;20043;-79
2021/08/28 08:55:15;;;;;;;0.00;0.00;;;26.00;41.10;;;;;;5041183;28;20052;-79
2021/08/28 08:57:42;;;;;;;0.20;0.20;;;29.10;32.30;;;;;;5035051;28;20047;-79
2021/08/28 09:00:08;;;;;;;0.00;0.00;;;31.00;29.30;;;;;;5032093;28;20030;-79
2021/08/28 09:02:36;;;;;;;0.00;0.00;;;29.40;33.80;;;;;;5036309;28;20036;-79
2021/08/28 09:05:03;;;;;;;0.13;0.13;;;28.10;29.00;;;;;;5043155;28;20033;-79
2021/08/28 09:07:29;;;;;;;0.00;0.00;;;28.90;29.60;;;;;;5038909;28;20041;-78
2021/08/28 09:09:54;;;;;;;0.00;0.00;;;29.90;26.70;;;;;;5043812;28;20212;-79
2021/08/28 09:12:20;;;;;;;0.30;0.17;;;31.00;27.50;;;;;;5041939;28;20341;-79
2021/08/28 09:14:57;;;;;;;0.00;0.00;;;30.20;29.50;;;;;;5038906;28;20033;-79
2021/08/28 09:17:23;;;;;;;0.00;0.00;;;31.40;25.10;;;;;;5037247;28;20029;-81
2021/08/28 09:19:50;;;;;;;0.10;0.10;;;29.80;24.90;;;;;;5030716;28;20410;-80
2021/08/28 09:22:33;;;;;;;1.75;0.63;;;28.60;26.00;;;;;;5042417;28;20047;-81
2021/08/28 09:25:04;;;;;;;0.00;0.00;;;28.20;29.50;;;;;;5031933;28;20033;-82
2021/08/28 09:27:38;;;;;;;0.82;0.28;;;28.30;29.40;;;;;;5040588;28;20028;-81
2021/08/28 09:30:21;;;;;;;0.00;0.00;;;28.30;28.40;;;;;;5038994;28;20041;-80
2021/08/28 09:33:05;;;;;;;0.40;0.40;;;30.20;26.60;;;;;;5038835;28;20094;-78
2021/08/28 09:35:38;;;;;;;0.00;0.00;;;29.70;26.10;;;;;;5038948;28;20037;-85
2021/08/28 09:38:15;;;;;;;0.00;0.00;;;31.30;25.70;;;;;;5034608;28;20037;-78
2021/08/28 09:40:55;;;;;;;0.00;0.00;;;31.50;20.80;;;;;;5035418;28;20485;-77
2021/08/28 09:43:22;;;;;;;0.05;0.05;;;29.60;25.40;;;;;;5043083;28;20175;-78
2021/08/28 09:45:51;;;;;;;0.00;0.00;;;28.30;26.10;;;;;;5040388;28;20094;-80
2021/08/28 09:48:18;;;;;;;1.02;0.35;;;30.00;25.10;;;;;;5043570;28;20175;-79
2021/08/28 09:50:49;;;;;;;0.00;0.00;;;28.90;23.50;;;;;;5040054;28;20103;-78
2021/08/28 09:53:21;;;;;;;0.10;0.10;;;27.40;28.80;;;;;;5053592;28;20408;-78
2021/08/28 09:56:00;;;;;;;0.00;0.00;;;28.70;26.70;;;;;;5038261;28;20052;-78
2021/08/28 09:58:31;;;;;;;0.00;0.00;;;29.40;24.90;;;;;;5040888;28;20055;-79
2021/08/28 10:01:01;;;;;;;0.00;0.00;;;30.00;23.50;;;;;;5040892;28;20087;-79
2021/08/28 10:03:28;;;;;;;0.00;0.00;;;29.50;24.00;;;;;;5040983;28;20029;-78
2021/08/28 10:05:55;;;;;;;0.00;0.00;;;27.70;23.70;;;;;;5037643;28;20105;-78
2021/08/28 10:08:22;;;;;;;0.05;0.05;;;28.70;25.50;;;;;;5039574;28;20431;-78
2021/08/28 10:10:49;;;;;;;0.05;0.05;;;29.30;26.40;;;;;;5040633;28;20878;-79
2021/08/28 10:13:17;;;;;;;0.00;0.00;;;27.80;26.10;;;;;;5039780;28;20035;-79
2021/08/28 10:15:43;;;;;;;1.00;0.25;;;28.00;26.00;;;;;;5039626;28;20041;-79
2021/08/28 10:18:11;;;;;;;0.10;0.10;;;27.20;27.20;;;;;;5038323;28;20397;-78
2021/08/28 10:20:39;;;;;;;0.00;0.00;;;28.20;25.70;;;;;;5042813;28;20041;-81
2021/08/28 10:23:06;;;;;;;0.00;0.00;;;28.80;24.50;;;;;;5041797;28;20195;-78
2021/08/28 10:25:36;;;;;;;2.42;0.57;;;28.20;24.50;;;;;;5037201;28;20079;-79
2021/08/28 10:28:04;;;;;;;0.00;0.00;;;29.10;24.90;;;;;;5038498;28;20031;-84
2021/08/28 10:30:30;;;;;;;0.00;0.00;;;29.40;27.20;;;;;;5032879;28;20110;-85
2021/08/28 10:32:56;;;;;;;0.00;0.00;;;27.20;26.50;;;;;;5039600;28;20025;-84
2021/08/28 10:35:22;;;;;;;0.00;0.00;;;28.00;26.60;;;;;;5030999;28;20052;-81
2021/08/28 10:37:49;;;;;;;0.00;0.00;;;29.40;24.10;;;;;;5036085;28;20033;-82
2021/08/28 10:40:22;;;;;;;;;;;30.80;20.70;;;;;;5039218;28;20037;-83
2021/08/28 10:42:53;;;;;;;0.00;0.00;;;29.60;23.40;;;;;;5038977;28;20024;-81
2021/08/28 10:45:30;;;;;;;0.00;0.00;;;30.10;23.60;;;;;;5038010;28;20036;-81
2021/08/28 10:48:01;;;;;;;0.00;0.00;;;26.50;33.10;;;;;;5039660;28;20029;-80
2021/08/28 10:50:33;;;;;;;1.25;0.57;;;25.30;37.80;;;;;;5039639;28;20074;-82
2021/08/28 10:53:00;;;;;;;0.00;0.00;;;25.40;37.20;;;;;;5038273;28;20692;-80
2021/08/28 10:55:33;;;;;;;0.10;0.10;;;23.40;41.20;;;;;;5040592;28;20044;-79
2021/08/28 10:58:29;;;;;;;0.55;0.32;;;23.00;41.60;;;;;;5028330;28;20457;-81
2021/08/28 11:00:56;;;;;;;0.22;0.10;;;22.40;43.50;;;;;;5035949;28;20465;-80
2021/08/28 11:03:32;;;;;;;0.00;0.00;;;22.80;42.60;;;;;;5038652;28;20033;-80
2021/08/28 11:06:16;;;;;;;0.00;0.00;;;22.90;42.40;;;;;;5041398;28;20032;-81
2021/08/28 11:09:00;;;;;;;0.20;0.13;;;22.60;44.10;;;;;;5040523;28;20505;-81
2021/08/28 11:11:30;;;;;;;0.20;0.20;;;21.80;45.30;;;;;;5038683;28;20036;-80
2021/08/28 11:14:40;;;;;;;0.00;0.00;;;22.90;43.10;;;;;;5039908;28;20525;-79
2021/08/28 11:17:11;;;;;;;0.00;0.00;;;22.90;42.20;;;;;;5038378;28;20048;-80
2021/08/28 11:19:49;;;;;;;0.00;0.00;;;22.60;44.50;;;;;;5041627;28;20533;-80
2021/08/28 11:22:21;;;;;;;0.05;0.05;;;22.90;43.40;;;;;;5036069;28;20029;-80
2021/08/28 11:24:55;;;;;;;0.00;0.00;;;22.50;43.20;;;;;;5027054;28;20036;-80
2021/08/28 11:27:37;;;;;;;0.20;0.10;;;22.30;43.50;;;;;;5030396;28;20059;-80
2021/08/28 11:30:03;;;;;;;0.55;0.05;;;22.60;43.50;;;;;;5033389;28;20551;-80
2021/08/28 11:32:28;;;;;;;0.10;0.10;;;22.60;44.20;;;;;;5039886;28;20064;-83
2021/08/28 11:34:56;;;;;;;0.80;0.20;;;23.10;43.50;;;;;;5040681;28;20501;-82
2021/08/28 11:37:28;;;;;;;0.05;0.05;;;23.60;43.40;;;;;;5040855;28;20022;-82
2021/08/28 11:39:59;;;;;;;0.08;0.08;;;22.70;43.50;;;;;;5040388;28;20032;-82
2021/08/28 11:42:29;;;;;;;0.03;0.03;;;22.60;44.00;;;;;;5041426;28;20036;-82
2021/08/28 11:44:57;;;;;;;0.00;0.00;;;22.00;45.50;;;;;;5036220;28;20024;-81
2021/08/28 11:47:23;;;;;;;0.00;0.00;;;22.20;44.80;;;;;;5024912;28;20029;-81
2021/08/28 11:49:54;;;;;;;0.00;0.00;;;22.80;43.20;;;;;;5031038;28;20029;-81
2021/08/28 11:52:20;;;;;;;0.00;0.00;;;23.50;42.40;;;;;;5033461;28;20041;-81
2021/08/28 11:54:46;;;;;;;0.00;0.00;;;23.70;41.50;;;;;;5036235;28;20067;-80
2021/08/28 11:57:13;;;;;;;0.00;0.00;;;23.50;41.80;;;;;;5053999;28;20319;-80
2021/08/28 11:59:40;;;;;;;;;;;23.90;41.90;;;;;;5038765;28;20032;-81
2021/08/28 12:02:06;;;;;;;0.00;0.00;;;23.70;40.90;;;;;;5032781;28;19913;-81
2021/08/28 12:04:36;;;;;;;0.00;0.00;;;23.60;41.50;;;;;;5039758;28;20068;-81
2021/08/28 12:07:04;;;;;;;0.00;0.00;;;22.60;41.90;;;;;;5040261;28;20018;-81
2021/08/28 12:09:31;;;;;;;0.00;0.00;;;22.20;55.80;;;;;;5024810;28;20049;-82
2021/08/28 12:11:57;;;;;;;;;;;22.10;45.20;;;;;;5038180;28;20071;-81
2021/08/28 12:14:32;;;;;;;0.00;0.00;;;22.40;43.70;;;;;;5034761;28;19983;-83
2021/08/28 12:16:59;;;;;;;0.10;0.05;;;22.10;43.80;;;;;;5039712;28;20029;-81
2021/08/28 12:19:31;;;;;;;0.00;0.00;;;22.10;45.00;;;;;;5041966;28;20095;-83
2021/08/28 12:21:59;;;;;;;0.00;0.00;;;22.50;45.50;;;;;;5045028;28;20066;-82
2021/08/28 12:24:33;;;;;;;0.10;0.10;;;22.30;44.40;;;;;;5043380;28;20036;-83
2021/08/28 12:27:02;;;;;;;0.00;0.00;;;22.20;43.90;;;;;;5056519;28;20029;-83
2021/08/28 12:29:33;;;;;;;0.00;0.00;;;22.70;43.60;;;;;;5040772;28;20076;-82
2021/08/28 12:32:14;;;;;;;0.00;0.00;;;22.30;45.20;;;;;;5036003;28;20044;-83
2021/08/28 12:34:45;;;;;;;0.55;0.30;;;22.10;45.10;;;;;;5039508;28;20021;-84
2021/08/28 12:37:17;;;;;;;0.00;0.00;;;21.90;47.50;;;;;;5056301;28;20037;-84
2021/08/28 12:39:47;;;;;;;0.05;0.05;;;22.00;45.50;;;;;;5042063;28;20402;-84
2021/08/28 12:42:14;;;;;;;0.00;0.00;;;21.80;46.00;;;;;;5036227;28;20055;-85
2021/08/28 12:44:47;;;;;;;0.00;0.00;;;22.20;45.50;;;;;;5041509;28;20039;-83
2021/08/28 12:47:15;;;;;;;0.00;0.00;;;22.20;44.90;;;;;;5044191;28;20170;-87
2021/08/28 12:49:44;;;;;;;0.00;0.00;;;22.60;45.20;;;;;;5057623;28;20049;-89
2021/08/28 12:52:11;;;;;;;0.15;0.15;;;22.00;44.80;;;;;;5029301;28;20810;-90
2021/08/28 12:54:52;;;;;;;0.00;0.00;;;22.30;44.80;;;;;;5043098;28;20083;-90